Denver, Colorado
Traffic Map
Current Weather Conditions
Denver, Colorado
Clear
Clear
16°
Feels Like: 16°
Wind Chill: 16° Ceiling: Unl
Heat Index: 16° Visibility: 10mi
Dew Point: -4° Wind: 13mph
Humidity: 25% Direction: 220° (SW)
Pressure: 30.3in Gusts: 0mph
Raw Report DataKBKF 261758Z 22011KT 10SM CLR 16/M04 A3030 RMK AO2A SLP225 T01591043 10159 20033 53006
Traffic Incident Summary
Active as of:
Severity:
Category:
InformationThere was an issue retrieving the traffic information for this location. Please try a different location or try again shortly.
Advertisements
Track Severe Weather on mobile